sensor_id;sensor_type;location;lat;lon;timestamp;pressure;altitude;pressure_sealevel;temperature;humidity
17373;BME280;8803;48.116;11.590;2023-10-13T00:01:55;95737.22;;;21.01;49.63
17373;BME280;8803;48.116;11.590;2023-10-13T00:06:14;95730.75;;;21.02;49.79
17373;BME280;8803;48.116;11.590;2023-10-13T00:08:20;95734.59;;;20.97;49.72
17373;BME280;8803;48.116;11.590;2023-10-13T00:10:27;95731.55;;;20.96;49.77
17373;BME280;8803;48.116;11.590;2023-10-13T00:12:31;95729.05;;;20.94;49.78
17373;BME280;8803;48.116;11.590;2023-10-13T00:14:38;95727.06;;;20.92;49.83
17373;BME280;8803;48.116;11.590;2023-10-13T00:16:44;95730.28;;;20.92;49.83
17373;BME280;8803;48.116;11.590;2023-10-13T00:18:53;95731.51;;;20.89;49.86
17373;BME280;8803;48.116;11.590;2023-10-13T00:30:21;95736.11;;;20.78;49.94
17373;BME280;8803;48.116;11.590;2023-10-13T00:32:27;95734.97;;;20.77;50.06
17373;BME280;8803;48.116;11.590;2023-10-13T00:34:33;95731.32;;;20.74;50.10
17373;BME280;8803;48.116;11.590;2023-10-13T00:38:54;95724.86;;;20.75;50.27
17373;BME280;8803;48.116;11.590;2023-10-13T00:40:59;95729.84;;;20.71;50.15
17373;BME280;8803;48.116;11.590;2023-10-13T00:43:07;95728.66;;;20.70;50.21
17373;BME280;8803;48.116;11.590;2023-10-13T00:45:31;95726.49;;;20.69;50.26
17373;BME280;8803;48.116;11.590;2023-10-13T00:47:37;95736.98;;;20.68;50.25
17373;BME280;8803;48.116;11.590;2023-10-13T00:49:43;95727.21;;;20.67;50.25
17373;BME280;8803;48.116;11.590;2023-10-13T00:54:05;95722.95;;;20.69;50.44
17373;BME280;8803;48.116;11.590;2023-10-13T00:58:31;95723.33;;;20.66;50.47
17373;BME280;8803;48.116;11.590;2023-10-13T01:02:55;95726.95;;;20.62;50.53
17373;BME280;8803;48.116;11.590;2023-10-13T01:04:59;95725.04;;;20.56;50.42
17373;BME280;8803;48.116;11.590;2023-10-13T01:07:05;95732.01;;;20.55;50.49
17373;BME280;8803;48.116;11.590;2023-10-13T01:09:11;95732.89;;;20.51;50.53
17373;BME280;8803;48.116;11.590;2023-10-13T01:11:19;95733.95;;;20.50;50.54
17373;BME280;8803;48.116;11.590;2023-10-13T01:13:25;95732.25;;;20.49;50.37
17373;BME280;8803;48.116;11.590;2023-10-13T01:15:32;95733.81;;;20.48;50.46
17373;BME280;8803;48.116;11.590;2023-10-13T01:17:37;95731.48;;;20.44;50.47
17373;BME280;8803;48.116;11.590;2023-10-13T01:19:41;95733.89;;;20.43;50.51
17373;BME280;8803;48.116;11.590;2023-10-13T01:21:48;95732.41;;;20.41;50.23
17373;BME280;8803;48.116;11.590;2023-10-13T01:23:52;95728.42;;;20.37;50.45
17373;BME280;8803;48.116;11.590;2023-10-13T01:25:57;95726.73;;;20.36;50.62
17373;BME280;8803;48.116;11.590;2023-10-13T01:30:17;95724.56;;;20.35;50.65
17373;BME280;8803;48.116;11.590;2023-10-13T01:32:26;95726.70;;;20.29;50.51
17373;BME280;8803;48.116;11.590;2023-10-13T01:34:30;95726.06;;;20.27;50.65
17373;BME280;8803;48.116;11.590;2023-10-13T01:36:36;95725.39;;;20.25;50.57
17373;BME280;8803;48.116;11.590;2023-10-13T01:38:42;95720.70;;;20.23;50.64
17373;BME280;8803;48.116;11.590;2023-10-13T01:42:59;95714.27;;;20.24;50.70
17373;BME280;8803;48.116;11.590;2023-10-13T01:47:23;95714.65;;;20.21;50.78
17373;BME280;8803;48.116;11.590;2023-10-13T01:49:29;95718.09;;;20.15;50.66
17373;BME280;8803;48.116;11.590;2023-10-13T01:53:50;95720.80;;;20.15;50.61
17373;BME280;8803;48.116;11.590;2023-10-13T01:55:58;95725.13;;;20.10;50.57
17373;BME280;8803;48.116;11.590;2023-10-13T01:58:05;95717.94;;;20.06;50.63
17373;BME280;8803;48.116;11.590;2023-10-13T02:00:15;95723.34;;;20.06;50.75
17373;BME280;8803;48.116;11.590;2023-10-13T02:02:22;95725.41;;;20.04;50.72
17373;BME280;8803;48.116;11.590;2023-10-13T02:04:33;95731.48;;;20.02;50.73
17373;BME280;8803;48.116;11.590;2023-10-13T02:06:38;95728.68;;;20.00;50.86
17373;BME280;8803;48.116;11.590;2023-10-13T02:08:42;95728.34;;;19.99;50.84
17373;BME280;8803;48.116;11.590;2023-10-13T02:10:47;95728.20;;;19.96;50.91
17373;BME280;8803;48.116;11.590;2023-10-13T02:12:51;95727.90;;;19.95;50.91
17373;BME280;8803;48.116;11.590;2023-10-13T02:14:58;95726.21;;;19.94;50.92
17373;BME280;8803;48.116;11.590;2023-10-13T02:17:04;95721.21;;;19.91;50.72
17373;BME280;8803;48.116;11.590;2023-10-13T02:19:15;95724.63;;;19.89;50.80
17373;BME280;8803;48.116;11.590;2023-10-13T02:21:22;95726.69;;;19.87;50.68
17373;BME280;8803;48.116;11.590;2023-10-13T02:23:30;95726.34;;;19.86;50.90
17373;BME280;8803;48.116;11.590;2023-10-13T02:25:36;95725.70;;;19.84;50.84
17373;BME280;8803;48.116;11.590;2023-10-13T02:29:59;95723.00;;;19.84;50.85
17373;BME280;8803;48.116;11.590;2023-10-13T02:34:17;95723.06;;;19.80;51.04
17373;BME280;8803;48.116;11.590;2023-10-13T02:36:24;95730.89;;;19.75;50.83
17373;BME280;8803;48.116;11.590;2023-10-13T02:38:31;95719.98;;;19.73;50.94
17373;BME280;8803;48.116;11.590;2023-10-13T02:40:39;95727.45;;;19.71;51.05
17373;BME280;8803;48.116;11.590;2023-10-13T02:42:44;95726.46;;;19.67;50.96
17373;BME280;8803;48.116;11.590;2023-10-13T02:44:49;95725.81;;;19.65;51.00
17373;BME280;8803;48.116;11.590;2023-10-13T02:46:58;95724.83;;;19.62;51.02
17373;BME280;8803;48.116;11.590;2023-10-13T02:49:03;95723.38;;;19.60;50.98
17373;BME280;8803;48.116;11.590;2023-10-13T02:51:13;95716.48;;;19.57;51.01
17373;BME280;8803;48.116;11.590;2023-10-13T02:53:21;95723.09;;;19.55;50.98
17373;BME280;8803;48.116;11.590;2023-10-13T02:55:25;95718.70;;;19.54;50.98
17373;BME280;8803;48.116;11.590;2023-10-13T02:57:30;95719.61;;;19.50;51.14
17373;BME280;8803;48.116;11.590;2023-10-13T03:01:50;95713.37;;;19.50;51.25
17373;BME280;8803;48.116;11.590;2023-10-13T03:03:58;95718.69;;;19.43;51.13
17373;BME280;8803;48.116;11.590;2023-10-13T03:06:03;95715.03;;;19.40;51.17
17373;BME280;8803;48.116;11.590;2023-10-13T03:08:08;95710.84;;;19.38;51.14
17373;BME280;8803;48.116;11.590;2023-10-13T03:10:15;95712.05;;;19.35;51.23
17373;BME280;8803;48.116;11.590;2023-10-13T03:14:34;95711.24;;;19.35;51.24
17373;BME280;8803;48.116;11.590;2023-10-13T03:16:38;95708.42;;;19.28;51.15
17373;BME280;8803;48.116;11.590;2023-10-13T03:20:58;95708.09;;;19.27;51.18
17373;BME280;8803;48.116;11.590;2023-10-13T03:23:07;95711.04;;;19.22;51.14
17373;BME280;8803;48.116;11.590;2023-10-13T03:25:13;95709.05;;;19.20;51.13
17373;BME280;8803;48.116;11.590;2023-10-13T03:27:20;95707.55;;;19.17;51.39
17373;BME280;8803;48.116;11.590;2023-10-13T03:29:26;95710.45;;;19.16;51.17
17373;BME280;8803;48.116;11.590;2023-10-13T03:31:32;95715.70;;;19.13;51.01
17373;BME280;8803;48.116;11.590;2023-10-13T03:33:39;95712.86;;;19.11;51.24
17373;BME280;8803;48.116;11.590;2023-10-13T03:35:46;95714.57;;;19.08;51.21
17373;BME280;8803;48.116;11.590;2023-10-13T03:40:09;95713.06;;;19.09;51.28
17373;BME280;8803;48.116;11.590;2023-10-13T03:42:21;95708.08;;;19.02;51.25
17373;BME280;8803;48.116;11.590;2023-10-13T03:44:28;95712.63;;;19.02;51.09
17373;BME280;8803;48.116;11.590;2023-10-13T03:46:35;95706.58;;;19.00;51.16
17373;BME280;8803;48.116;11.590;2023-10-13T03:48:41;95704.27;;;18.97;51.14
17373;BME280;8803;48.116;11.590;2023-10-13T03:50:58;95704.98;;;18.95;51.26
17373;BME280;8803;48.116;11.590;2023-10-13T03:53:06;95699.74;;;18.93;51.26
17373;BME280;8803;48.116;11.590;2023-10-13T03:55:13;95704.83;;;18.92;51.29
17373;BME280;8803;48.116;11.590;2023-10-13T03:57:21;95700.98;;;18.90;51.32
17373;BME280;8803;48.116;11.590;2023-10-13T04:01:38;95692.89;;;18.90;51.39
17373;BME280;8803;48.116;11.590;2023-10-13T04:06:07;95702.89;;;18.86;51.54
17373;BME280;8803;48.116;11.590;2023-10-13T04:10:26;95709.98;;;18.83;51.58
17373;BME280;8803;48.116;11.590;2023-10-13T04:12:47;95708.38;;;18.78;51.45
17373;BME280;8803;48.116;11.590;2023-10-13T04:17:25;95701.49;;;18.75;51.62
17373;BME280;8803;48.116;11.590;2023-10-13T04:21:55;95700.35;;;18.70;51.67
17373;BME280;8803;48.116;11.590;2023-10-13T04:24:01;95704.84;;;18.63;51.67
17373;BME280;8803;48.116;11.590;2023-10-13T04:26:25;95698.59;;;18.62;51.59
17373;BME280;8803;48.116;11.590;2023-10-13T04:28:31;95700.64;;;18.60;51.66
17373;BME280;8803;48.116;11.590;2023-10-13T04:32:57;95694.75;;;18.61;51.67
17373;BME280;8803;48.116;11.590;2023-10-13T04:35:22;95696.30;;;18.55;51.49
17373;BME280;8803;48.116;11.590;2023-10-13T04:37:28;95697.00;;;18.53;51.57
17373;BME280;8803;48.116;11.590;2023-10-13T04:39:32;95691.80;;;18.52;51.54
17373;BME280;8803;48.116;11.590;2023-10-13T04:41:39;95689.30;;;18.50;51.62
17373;BME280;8803;48.116;11.590;2023-10-13T04:43:45;95682.22;;;18.49;51.76
17373;BME280;8803;48.116;11.590;2023-10-13T04:46:00;95678.67;;;18.49;51.77
17373;BME280;8803;48.116;11.590;2023-10-13T04:48:08;95677.86;;;18.48;51.77
17373;BME280;8803;48.116;11.590;2023-10-13T04:50:31;95677.21;;;18.46;51.63
17373;BME280;8803;48.116;11.590;2023-10-13T04:52:39;95683.80;;;18.44;51.59
17373;BME280;8803;48.116;11.590;2023-10-13T04:54:56;95679.92;;;18.42;51.67
17373;BME280;8803;48.116;11.590;2023-10-13T04:57:03;95684.97;;;18.41;51.33
17373;BME280;8803;48.116;11.590;2023-10-13T04:59:28;95685.16;;;18.40;51.66
17373;BME280;8803;48.116;11.590;2023-10-13T05:01:44;95682.83;;;18.37;51.64
17373;BME280;8803;48.116;11.590;2023-10-13T05:04:07;95686.55;;;18.36;51.66
17373;BME280;8803;48.116;11.590;2023-10-13T05:06:26;95686.41;;;18.33;51.78
17373;BME280;8803;48.116;11.590;2023-10-13T05:11:14;95679.66;;;18.33;51.69
17373;BME280;8803;48.116;11.590;2023-10-13T05:13:38;95682.06;;;18.28;51.63
17373;BME280;8803;48.116;11.590;2023-10-13T05:16:00;95685.61;;;18.29;51.54
17373;BME280;8803;48.116;11.590;2023-10-13T05:20:35;95677.52;;;18.29;51.73
17373;BME280;8803;48.116;11.590;2023-10-13T05:22:57;95675.56;;;18.23;51.62
17373;BME280;8803;48.116;11.590;2023-10-13T05:25:19;95686.00;;;18.22;51.39
17373;BME280;8803;48.116;11.590;2023-10-13T05:27:42;95690.23;;;18.20;51.40
17373;BME280;8803;48.116;11.590;2023-10-13T05:30:06;95687.39;;;18.18;51.36
17373;BME280;8803;48.116;11.590;2023-10-13T05:32:29;95679.50;;;18.16;51.44
17373;BME280;8803;48.116;11.590;2023-10-13T05:37:08;95687.54;;;18.20;51.45
17373;BME280;8803;48.116;11.590;2023-10-13T05:39:26;95692.47;;;18.17;51.47
17373;BME280;8803;48.116;11.590;2023-10-13T05:41:48;95686.58;;;18.17;51.27
17373;BME280;8803;48.116;11.590;2023-10-13T05:44:17;95696.52;;;18.17;50.79
17373;BME280;8803;48.116;11.590;2023-10-13T05:48:51;95687.73;;;18.19;51.25
17373;BME280;8803;48.116;11.590;2023-10-13T05:51:09;95700.40;;;18.14;51.24
17373;BME280;8803;48.116;11.590;2023-10-13T05:55:43;95694.62;;;18.21;51.44
17373;BME280;8803;48.116;11.590;2023-10-13T05:58:05;95703.90;;;18.19;51.24
17373;BME280;8803;48.116;11.590;2023-10-13T06:00:27;95702.86;;;18.20;51.20
17373;BME280;8803;48.116;11.590;2023-10-13T06:02:49;95704.36;;;18.22;51.17
17373;BME280;8803;48.116;11.590;2023-10-13T06:05:13;95705.02;;;18.24;50.96
17373;BME280;8803;48.116;11.590;2023-10-13T06:07:35;95710.05;;;18.27;50.89
17373;BME280;8803;48.116;11.590;2023-10-13T06:09:57;95708.66;;;18.31;50.73
17373;BME280;8803;48.116;11.590;2023-10-13T06:12:19;95710.16;;;18.34;50.85
17373;BME280;8803;48.116;11.590;2023-10-13T06:14:44;95707.09;;;18.37;50.74
17373;BME280;8803;48.116;11.590;2023-10-13T06:17:04;95710.92;;;18.42;50.42
17373;BME280;8803;48.116;11.590;2023-10-13T06:19:26;95714.42;;;18.47;50.31
17373;BME280;8803;48.116;11.590;2023-10-13T06:21:51;95713.23;;;18.49;50.25
17373;BME280;8803;48.116;11.590;2023-10-13T06:26:40;95711.23;;;18.62;50.12
17373;BME280;8803;48.116;11.590;2023-10-13T06:29:03;95711.09;;;18.59;49.98
17373;BME280;8803;48.116;11.590;2023-10-13T06:31:12;95711.19;;;18.66;49.95
17373;BME280;8803;48.116;11.590;2023-10-13T06:33:19;95713.34;;;18.70;49.77
17373;BME280;8803;48.116;11.590;2023-10-13T06:35:24;95713.12;;;18.76;49.79
17373;BME280;8803;48.116;11.590;2023-10-13T06:37:29;95723.67;;;18.81;49.68
17373;BME280;8803;48.116;11.590;2023-10-13T06:39:35;95711.83;;;18.86;49.64
17373;BME280;8803;48.116;11.590;2023-10-13T06:41:39;95714.78;;;18.91;49.33
17373;BME280;8803;48.116;11.590;2023-10-13T06:43:44;95715.07;;;18.97;49.39
17373;BME280;8803;48.116;11.590;2023-10-13T06:45:49;95710.47;;;19.01;49.10
17373;BME280;8803;48.116;11.590;2023-10-13T06:48:03;95706.88;;;19.05;49.19
17373;BME280;8803;48.116;11.590;2023-10-13T06:50:09;95715.92;;;19.08;48.96
17373;BME280;8803;48.116;11.590;2023-10-13T06:54:29;95711.41;;;19.19;48.97
17373;BME280;8803;48.116;11.590;2023-10-13T06:56:35;95717.95;;;19.20;48.85
17373;BME280;8803;48.116;11.590;2023-10-13T06:58:44;95715.54;;;19.25;48.69
17373;BME280;8803;48.116;11.590;2023-10-13T07:00:49;95716.33;;;19.30;48.27
17373;BME280;8803;48.116;11.590;2023-10-13T07:02:59;95716.64;;;19.35;48.58
17373;BME280;8803;48.116;11.590;2023-10-13T07:07:22;95720.40;;;19.55;48.45
17373;BME280;8803;48.116;11.590;2023-10-13T07:11:41;95706.91;;;19.65;48.23
17373;BME280;8803;48.116;11.590;2023-10-13T07:13:46;95710.45;;;19.66;48.25
17373;BME280;8803;48.116;11.590;2023-10-13T07:15:52;95716.09;;;19.71;48.27
17373;BME280;8803;48.116;11.590;2023-10-13T07:17:58;95714.69;;;19.75;48.35
17373;BME280;8803;48.116;11.590;2023-10-13T07:20:05;95716.52;;;19.79;48.35
17373;BME280;8803;48.116;11.590;2023-10-13T07:22:13;95714.25;;;19.82;48.38
17373;BME280;8803;48.116;11.590;2023-10-13T07:24:23;95719.59;;;19.86;48.44
17373;BME280;8803;48.116;11.590;2023-10-13T07:26:29;95715.47;;;19.90;48.44
17373;BME280;8803;48.116;11.590;2023-10-13T07:28:34;95714.25;;;19.93;48.45
17373;BME280;8803;48.116;11.590;2023-10-13T07:30:42;95713.55;;;19.95;47.71
17373;BME280;8803;48.116;11.590;2023-10-13T07:32:52;95715.67;;;19.99;48.03
17373;BME280;8803;48.116;11.590;2023-10-13T07:34:56;95715.27;;;20.02;48.16
17373;BME280;8803;48.116;11.590;2023-10-13T07:37:00;95716.58;;;20.06;48.00
17373;BME280;8803;48.116;11.590;2023-10-13T07:39:06;95716.17;;;20.09;47.85
17373;BME280;8803;48.116;11.590;2023-10-13T07:41:19;95711.75;;;20.12;48.01
17373;BME280;8803;48.116;11.590;2023-10-13T07:43:25;95705.94;;;20.15;48.17
17373;BME280;8803;48.116;11.590;2023-10-13T07:45:30;95705.56;;;20.18;48.23
17373;BME280;8803;48.116;11.590;2023-10-13T07:47:38;95704.16;;;20.22;48.30
17373;BME280;8803;48.116;11.590;2023-10-13T07:49:43;95700.55;;;20.26;48.26
17373;BME280;8803;48.116;11.590;2023-10-13T07:51:49;95706.42;;;20.29;48.30
17373;BME280;8803;48.116;11.590;2023-10-13T07:53:55;95702.30;;;20.33;48.24
17373;BME280;8803;48.116;11.590;2023-10-13T07:56:00;95696.98;;;20.36;48.30
17373;BME280;8803;48.116;11.590;2023-10-13T07:58:07;95702.34;;;20.40;48.31
17373;BME280;8803;48.116;11.590;2023-10-13T08:00:17;95703.80;;;20.42;48.04
17373;BME280;8803;48.116;11.590;2023-10-13T08:02:30;95702.91;;;20.46;47.91
17373;BME280;8803;48.116;11.590;2023-10-13T08:04:51;95705.84;;;20.51;48.10
17373;BME280;8803;48.116;11.590;2023-10-13T08:09:09;95695.71;;;20.60;46.83
17373;BME280;8803;48.116;11.590;2023-10-13T08:11:16;95700.41;;;20.62;46.99
17373;BME280;8803;48.116;11.590;2023-10-13T08:13:36;95698.97;;;20.66;46.79
17373;BME280;8803;48.116;11.590;2023-10-13T08:15:42;95699.81;;;20.66;46.22
17373;BME280;8803;48.116;11.590;2023-10-13T08:17:49;95697.06;;;20.60;45.85
17373;BME280;8803;48.116;11.590;2023-10-13T08:19:55;95697.49;;;20.74;46.38
17373;BME280;8803;48.116;11.590;2023-10-13T08:22:01;95693.48;;;20.70;45.97
17373;BME280;8803;48.116;11.590;2023-10-13T08:26:32;95688.58;;;20.97;46.29
17373;BME280;8803;48.116;11.590;2023-10-13T08:29:02;95702.41;;;20.98;46.18
17373;BME280;8803;48.116;11.590;2023-10-13T08:31:10;95694.99;;;21.06;45.99
17373;BME280;8803;48.116;11.590;2023-10-13T08:33:20;95697.95;;;21.11;45.99
17373;BME280;8803;48.116;11.590;2023-10-13T08:35:28;95695.75;;;21.11;45.42
17373;BME280;8803;48.116;11.590;2023-10-13T08:37:39;95693.38;;;21.18;45.65
17373;BME280;8803;48.116;11.590;2023-10-13T08:39:53;95689.77;;;21.22;45.01
17373;BME280;8803;48.116;11.590;2023-10-13T08:42:16;95687.70;;;21.31;44.55
17373;BME280;8803;48.116;11.590;2023-10-13T08:44:22;95689.63;;;21.37;44.22
17373;BME280;8803;48.116;11.590;2023-10-13T08:46:39;95695.43;;;21.34;43.02
17373;BME280;8803;48.116;11.590;2023-10-13T08:51:10;95682.59;;;21.55;42.88
17373;BME280;8803;48.116;11.590;2023-10-13T08:53:19;95688.55;;;21.61;42.89
17373;BME280;8803;48.116;11.590;2023-10-13T08:55:31;95689.42;;;21.68;42.63
17373;BME280;8803;48.116;11.590;2023-10-13T08:57:42;95690.25;;;21.75;42.40
17373;BME280;8803;48.116;11.590;2023-10-13T08:59:48;95685.67;;;21.76;41.39
17373;BME280;8803;48.116;11.590;2023-10-13T09:02:00;95686.52;;;21.76;40.83
17373;BME280;8803;48.116;11.590;2023-10-13T09:04:08;95686.77;;;21.88;41.40
17373;BME280;8803;48.116;11.590;2023-10-13T09:08:38;95676.16;;;21.99;40.31
17373;BME280;8803;48.116;11.590;2023-10-13T09:10:49;95679.28;;;22.03;40.17
17373;BME280;8803;48.116;11.590;2023-10-13T09:12:56;95673.03;;;22.09;39.95
17373;BME280;8803;48.116;11.590;2023-10-13T09:15:08;95674.17;;;22.17;40.06
17373;BME280;8803;48.116;11.590;2023-10-13T09:17:25;95674.28;;;22.20;39.52
17373;BME280;8803;48.116;11.590;2023-10-13T09:19:49;95669.19;;;22.27;39.04
17373;BME280;8803;48.116;11.590;2023-10-13T09:21:55;95668.02;;;22.26;38.60
17373;BME280;8803;48.116;11.590;2023-10-13T09:23:59;95670.11;;;22.37;38.50
17373;BME280;8803;48.116;11.590;2023-10-13T09:26:23;95663.84;;;22.43;38.58
17373;BME280;8803;48.116;11.590;2023-10-13T09:28:30;95661.64;;;22.55;38.95
17373;BME280;8803;48.116;11.590;2023-10-13T09:30:42;95662.92;;;22.59;38.78
17373;BME280;8803;48.116;11.590;2023-10-13T09:32:47;95659.06;;;22.64;38.36
17373;BME280;8803;48.116;11.590;2023-10-13T09:37:07;95647.22;;;22.88;38.40
17373;BME280;8803;48.116;11.590;2023-10-13T09:39:14;95653.61;;;22.78;37.48
17373;BME280;8803;48.116;11.590;2023-10-13T09:43:34;95644.02;;;23.04;37.43
17373;BME280;8803;48.116;11.590;2023-10-13T09:45:43;95646.52;;;23.05;36.74
17373;BME280;8803;48.116;11.590;2023-10-13T09:47:51;95645.75;;;23.14;37.01
17373;BME280;8803;48.116;11.590;2023-10-13T09:49:59;95644.33;;;23.11;36.70
17373;BME280;8803;48.116;11.590;2023-10-13T09:52:08;95643.95;;;23.23;36.92
17373;BME280;8803;48.116;11.590;2023-10-13T09:56:32;95636.30;;;23.36;36.42
17373;BME280;8803;48.116;11.590;2023-10-13T09:58:46;95630.97;;;23.32;35.98
17373;BME280;8803;48.116;11.590;2023-10-13T10:00:52;95636.44;;;23.47;36.38
17373;BME280;8803;48.116;11.590;2023-10-13T10:03:01;95630.36;;;23.52;36.92
17373;BME280;8803;48.116;11.590;2023-10-13T10:05:09;95636.22;;;23.56;36.77
17373;BME280;8803;48.116;11.590;2023-10-13T10:07:26;95624.41;;;23.52;36.58
17373;BME280;8803;48.116;11.590;2023-10-13T10:09:33;95629.48;;;23.58;35.54
17373;BME280;8803;48.116;11.590;2023-10-13T10:14:35;95617.08;;;23.69;35.21
17373;BME280;8803;48.116;11.590;2023-10-13T10:19:02;95621.22;;;23.78;34.78
17373;BME280;8803;48.116;11.590;2023-10-13T10:21:06;95619.34;;;23.78;35.09
17373;BME280;8803;48.116;11.590;2023-10-13T10:23:21;95619.85;;;23.78;35.29
17373;BME280;8803;48.116;11.590;2023-10-13T10:25:28;95617.27;;;23.74;33.82
17373;BME280;8803;48.116;11.590;2023-10-13T10:27:29;95615.55;;;23.79;34.49
17373;BME280;8803;48.116;11.590;2023-10-13T10:31:46;95609.80;;;23.94;34.33
17373;BME280;8803;48.116;11.590;2023-10-13T10:33:51;95602.33;;;23.89;34.20
17373;BME280;8803;48.116;11.590;2023-10-13T10:36:02;95607.08;;;23.94;34.11
17373;BME280;8803;48.116;11.590;2023-10-13T10:38:14;95598.72;;;23.95;34.16
17373;BME280;8803;48.116;11.590;2023-10-13T10:42:44;95591.16;;;24.04;33.64
17373;BME280;8803;48.116;11.590;2023-10-13T10:47:14;95585.36;;;24.03;32.72
17373;BME280;8803;48.116;11.590;2023-10-13T10:49:27;95585.36;;;24.03;32.72
17373;BME280;8803;48.116;11.590;2023-10-13T10:51:34;95581.40;;;24.05;32.61
17373;BME280;8803;48.116;11.590;2023-10-13T10:56:05;95560.27;;;24.01;32.76
17373;BME280;8803;48.116;11.590;2023-10-13T10:58:11;95560.27;;;24.01;32.76
17373;BME280;8803;48.116;11.590;2023-10-13T11:00:21;95569.39;;;24.04;33.19
17373;BME280;8803;48.116;11.590;2023-10-13T11:04:45;95558.36;;;24.08;32.85
17373;BME280;8803;48.116;11.590;2023-10-13T11:09:08;95552.52;;;24.04;31.49
17373;BME280;8803;48.116;11.590;2023-10-13T11:11:15;95548.90;;;24.10;31.47
17373;BME280;8803;48.116;11.590;2023-10-13T11:13:21;95548.90;;;24.10;31.47
17373;BME280;8803;48.116;11.590;2023-10-13T11:15:26;95543.63;;;24.15;32.05
17373;BME280;8803;48.116;11.590;2023-10-13T11:17:32;95539.92;;;24.19;31.74
17373;BME280;8803;48.116;11.590;2023-10-13T11:19:46;95536.77;;;24.22;31.54
17373;BME280;8803;48.116;11.590;2023-10-13T11:21:51;95532.86;;;24.27;31.49
17373;BME280;8803;48.116;11.590;2023-10-13T11:23:57;95525.22;;;24.26;31.50
17373;BME280;8803;48.116;11.590;2023-10-13T11:28:18;95519.05;;;24.38;30.33
17373;BME280;8803;48.116;11.590;2023-10-13T11:32:37;95515.94;;;24.43;30.25
17373;BME280;8803;48.116;11.590;2023-10-13T11:34:44;95516.91;;;24.49;30.34
17373;BME280;8803;48.116;11.590;2023-10-13T11:36:51;95512.99;;;24.54;31.02
17373;BME280;8803;48.116;11.590;2023-10-13T11:38:56;95511.71;;;24.56;31.42
17373;BME280;8803;48.116;11.590;2023-10-13T11:41:02;95506.27;;;24.56;31.31
17373;BME280;8803;48.116;11.590;2023-10-13T11:43:13;95497.78;;;24.55;31.58
17373;BME280;8803;48.116;11.590;2023-10-13T11:45:19;95498.91;;;24.57;31.52
17373;BME280;8803;48.116;11.590;2023-10-13T11:49:46;95483.05;;;24.63;31.33
17373;BME280;8803;48.116;11.590;2023-10-13T11:51:52;95487.73;;;24.56;30.52
17373;BME280;8803;48.116;11.590;2023-10-13T11:54:00;95482.13;;;24.60;30.43
17373;BME280;8803;48.116;11.590;2023-10-13T11:56:08;95482.89;;;24.67;30.58
17373;BME280;8803;48.116;11.590;2023-10-13T11:58:13;95480.09;;;24.73;30.67
17373;BME280;8803;48.116;11.590;2023-10-13T12:00:20;95476.48;;;24.79;30.63
17373;BME280;8803;48.116;11.590;2023-10-13T12:02:32;95470.27;;;24.81;30.79
17373;BME280;8803;48.116;11.590;2023-10-13T12:05:01;95459.22;;;24.85;30.77
17373;BME280;8803;48.116;11.590;2023-10-13T12:09:20;95452.25;;;24.89;31.06
17373;BME280;8803;48.116;11.590;2023-10-13T12:13:48;95450.88;;;24.89;30.74
17373;BME280;8803;48.116;11.590;2023-10-13T12:15:53;95450.05;;;24.89;30.96
17373;BME280;8803;48.116;11.590;2023-10-13T12:17:59;95451.16;;;24.90;31.23
17373;BME280;8803;48.116;11.590;2023-10-13T12:20:08;95442.71;;;24.89;31.21
17373;BME280;8803;48.116;11.590;2023-10-13T12:22:14;95439.67;;;24.88;31.32
17373;BME280;8803;48.116;11.590;2023-10-13T12:24:20;95436.91;;;24.86;30.93
17373;BME280;8803;48.116;11.590;2023-10-13T12:26:27;95436.35;;;24.86;30.52
17373;BME280;8803;48.116;11.590;2023-10-13T12:28:35;95423.33;;;24.88;30.34
17373;BME280;8803;48.116;11.590;2023-10-13T12:30:42;95425.84;;;24.90;30.83
17373;BME280;8803;48.116;11.590;2023-10-13T12:32:53;95424.24;;;24.91;30.65
17373;BME280;8803;48.116;11.590;2023-10-13T12:35:00;95426.05;;;24.88;30.12
17373;BME280;8803;48.116;11.590;2023-10-13T12:37:09;95416.95;;;24.94;30.32
17373;BME280;8803;48.116;11.590;2023-10-13T12:41:28;95411.56;;;25.06;31.00
17373;BME280;8803;48.116;11.590;2023-10-13T12:43:55;95413.69;;;25.04;30.82
17373;BME280;8803;48.116;11.590;2023-10-13T12:46:24;95414.81;;;25.05;30.77
17373;BME280;8803;48.116;11.590;2023-10-13T12:51:02;95403.22;;;25.10;30.98
17373;BME280;8803;48.116;11.590;2023-10-13T12:55:24;95396.89;;;25.07;30.91
17373;BME280;8803;48.116;11.590;2023-10-13T12:57:29;95389.62;;;25.01;31.03
17373;BME280;8803;48.116;11.590;2023-10-13T12:59:35;95387.97;;;25.00;30.83
17373;BME280;8803;48.116;11.590;2023-10-13T13:01:41;95389.86;;;24.99;30.62
17373;BME280;8803;48.116;11.590;2023-10-13T13:03:46;95385.01;;;25.01;30.54
17373;BME280;8803;48.116;11.590;2023-10-13T13:05:51;95386.89;;;25.01;30.57
17373;BME280;8803;48.116;11.590;2023-10-13T13:07:57;95380.92;;;25.01;30.84
17373;BME280;8803;48.116;11.590;2023-10-13T13:10:02;95379.56;;;25.01;30.59
17373;BME280;8803;48.116;11.590;2023-10-13T13:12:07;95381.45;;;25.01;30.52
17373;BME280;8803;48.116;11.590;2023-10-13T13:16:27;95365.00;;;25.07;30.51
17373;BME280;8803;48.116;11.590;2023-10-13T13:18:33;95368.73;;;25.04;30.27
17373;BME280;8803;48.116;11.590;2023-10-13T13:20:38;95375.55;;;25.04;30.08
17373;BME280;8803;48.116;11.590;2023-10-13T13:22:49;95361.40;;;25.04;30.41
17373;BME280;8803;48.116;11.590;2023-10-13T13:24:54;95360.25;;;25.03;30.48
17373;BME280;8803;48.116;11.590;2023-10-13T13:29:14;95349.42;;;25.05;30.50
17373;BME280;8803;48.116;11.590;2023-10-13T13:31:20;95352.91;;;25.03;30.29
17373;BME280;8803;48.116;11.590;2023-10-13T13:33:28;95348.23;;;25.01;30.36
17373;BME280;8803;48.116;11.590;2023-10-13T13:35:34;95347.46;;;25.03;30.04
17373;BME280;8803;48.116;11.590;2023-10-13T13:37:39;95339.29;;;25.03;30.17
17373;BME280;8803;48.116;11.590;2023-10-13T13:39:46;95338.17;;;25.02;29.89
17373;BME280;8803;48.116;11.590;2023-10-13T13:41:50;95335.03;;;25.07;29.74